Time;durP1;ratioP1;P1;durP2;ratioP2;P2;SDS_P1;SDS_P2;PMS_P1;PMS_P2;Temp;Humidity;BMP_temperature;BMP_pressure;BME280_temperature;BME280_humidity;BME280_pressure;Samples;Min_cycle;Max_cycle;Signal;HPM_P1;HPM_P2
2022/06/02 00:02:48;;;;;;;5.40;3.10;;;;;;;19.04;80.79;99617.87;1744896;81;21082;-71
2022/06/02 00:05:50;;;;;;;4.70;3.12;;;;;;;19.04;80.85;99606.70;1746297;81;21047;-66
2022/06/02 00:08:36;;;;;;;4.22;3.02;;;;;;;19.06;80.82;99605.71;1744059;81;21000;-69
2022/06/02 00:11:08;;;;;;;;;;;;;;;19.06;80.81;99607.11;1747696;81;21011;-68
2022/06/02 00:14:06;;;;;;;5.80;2.27;;;;;;;19.06;80.81;99609.90;1745862;81;20193;-73
2022/06/02 00:16:53;;;;;;;4.05;2.60;;;;;;;19.04;80.67;99612.28;1746424;81;21542;-66
2022/06/02 00:19:49;;;;;;;3.17;2.33;;;;;;;19.00;80.46;99614.20;1748847;81;21039;-67
2022/06/02 00:22:26;;;;;;;4.83;2.27;;;;;;;18.96;80.71;99616.94;1742090;81;21023;-72
2022/06/02 00:25:14;;;;;;;4.95;2.42;;;;;;;18.93;80.85;99622.70;1745215;81;21483;-70
2022/06/02 00:27:58;;;;;;;5.70;2.50;;;;;;;18.92;81.02;99621.06;1743664;81;21004;-68
2022/06/02 00:30:36;;;;;;;6.80;2.62;;;;;;;18.90;81.14;99616.44;1712908;81;21059;-69
2022/06/02 00:33:11;;;;;;;5.50;2.70;;;;;;;18.89;81.24;99620.42;1734541;81;21028;-68
2022/06/02 00:35:43;;;;;;;7.00;3.20;;;;;;;18.90;81.33;99616.44;1745622;81;21905;-72
2022/06/02 00:38:26;;;;;;;6.92;2.92;;;;;;;18.89;81.17;99621.82;1745676;81;21035;-67
2022/06/02 00:40:54;;;;;;;4.50;2.65;;;;;;;18.88;81.29;99624.41;1745056;81;21027;-68
2022/06/02 00:43:45;;;;;;;3.17;2.30;;;;;;;18.79;81.42;99619.08;1744970;81;21071;-71
2022/06/02 00:46:35;;;;;;;2.98;2.52;;;;;;;18.76;81.74;99616.23;1743351;81;21094;-67
2022/06/02 00:49:28;;;;;;;3.70;2.40;;;;;;;18.72;81.81;99616.98;1746102;81;21182;-71
2022/06/02 00:52:19;;;;;;;3.55;2.55;;;;;;;18.67;81.94;99622.06;1746206;81;21083;-65
2022/06/02 00:58:25;;;;;;;3.33;2.83;;;;;;;18.64;82.04;99626.41;1744796;81;21142;-66
2022/06/02 01:01:14;;;;;;;4.40;2.92;;;;;;;18.52;82.58;99646.94;1745456;81;21039;-69
2022/06/02 01:03:47;;;;;;;5.00;3.37;;;;;;;18.22;83.23;99686.03;1740804;81;20976;-66
2022/06/02 01:06:26;;;;;;;6.00;3.33;;;;;;;18.03;84.07;99653.97;1737737;81;21070;-69
2022/06/02 01:09:26;;;;;;;7.10;3.40;;;;;;;18.00;84.53;99677.21;1739015;81;21087;-67
2022/06/02 01:12:37;;;;;;;5.83;2.85;;;;;;;17.99;84.62;99681.19;1699643;81;21062;-68
2022/06/02 01:15:29;;;;;;;5.12;2.47;;;;;;;17.98;84.61;99667.01;1748959;81;21056;-67
2022/06/02 01:18:33;;;;;;;4.80;2.30;;;;;;;18.05;84.24;99689.25;1755044;81;21259;-70
2022/06/02 01:21:23;;;;;;;11.48;2.58;;;;;;;18.07;83.86;99686.88;1754848;81;21045;-69
2022/06/02 01:24:07;;;;;;;4.10;2.42;;;;;;;18.10;83.52;99680.59;1754412;81;21036;-67
2022/06/02 01:27:29;;;;;;;13.18;2.83;;;;;;;18.15;83.44;99673.94;1755788;81;21537;-67
2022/06/02 01:30:31;;;;;;;4.58;2.62;;;;;;;18.22;83.16;99670.69;1752081;81;21087;-68
2022/06/02 01:33:18;;;;;;;3.47;2.30;;;;;;;18.31;82.79;99654.31;1753670;81;21771;-67
2022/06/02 01:36:02;;;;;;;3.60;2.42;;;;;;;18.35;82.40;99656.59;1741903;81;21006;-68
2022/06/02 01:38:40;;;;;;;3.15;2.37;;;;;;;18.35;82.02;99646.25;1754262;81;21553;-70
2022/06/02 01:41:34;;;;;;;3.47;2.80;;;;;;;18.37;81.86;99644.48;1753440;81;21064;-69
2022/06/02 01:44:06;;;;;;;4.05;3.08;;;;;;;18.38;81.72;99644.69;1752769;81;21079;-67
2022/06/02 01:46:49;;;;;;;4.97;2.70;;;;;;;18.37;81.43;99642.48;1753530;81;21091;-69
2022/06/02 01:49:21;;;;;;;9.70;3.15;;;;;;;18.32;81.19;99644.18;1754946;81;21048;-66
2022/06/02 01:52:17;;;;;;;4.40;3.12;;;;;;;18.25;81.06;99653.22;1751192;81;21032;-70
2022/06/02 01:55:26;;;;;;;5.10;2.52;;;;;;;18.19;81.30;99653.31;1754034;81;21052;-68
2022/06/02 01:58:25;;;;;;;4.40;2.87;;;;;;;18.16;81.26;99661.02;1751790;81;21703;-71
2022/06/02 02:01:22;;;;;;;3.35;2.70;;;;;;;18.13;81.54;99663.16;1753257;81;21151;-67
2022/06/02 02:04:15;;;;;;;4.58;3.27;;;;;;;18.14;81.60;99659.19;1754786;81;21048;-67
2022/06/02 02:06:53;;;;;;;3.05;2.50;;;;;;;18.16;81.68;99656.84;1751992;81;20989;-69
2022/06/02 02:09:43;;;;;;;4.40;3.02;;;;;;;18.19;81.67;99651.91;1746310;81;21040;-69
2022/06/02 02:12:37;;;;;;;6.55;4.00;;;;;;;18.20;81.63;99649.34;1754929;81;21049;-69
2022/06/02 02:15:49;;;;;;;7.00;4.15;;;;;;;18.22;81.65;99641.41;1747364;81;21847;-69
2022/06/02 02:18:56;;;;;;;7.22;4.40;;;;;;;18.25;81.70;99636.48;1731555;82;22399;-66
2022/06/02 02:21:41;;;;;;;10.48;4.72;;;;;;;18.30;81.63;99634.00;1732983;82;21067;-66
2022/06/02 02:24:22;;;;;;;9.28;4.00;;;;;;;18.31;81.44;99634.79;1696113;82;21047;-68
2022/06/02 02:27:06;;;;;;;8.38;3.67;;;;;;;18.29;81.58;99641.34;1731660;82;21033;-67
2022/06/02 02:29:57;;;;;;;4.33;3.77;;;;;;;18.30;81.58;99642.95;1732933;82;21743;-67
2022/06/02 02:32:38;;;;;;;7.78;4.12;;;;;;;18.29;81.41;99632.38;1720306;82;21039;-67
2022/06/02 02:35:24;;;;;;;5.28;4.42;;;;;;;18.28;81.24;99634.14;1730454;82;21559;-69
2022/06/02 02:38:14;;;;;;;8.23;4.42;;;;;;;18.28;81.33;99641.11;1676313;82;21084;-71
2022/06/02 02:40:51;;;;;;;7.15;3.95;;;;;;;18.29;81.41;99648.31;1738363;82;21048;-67
2022/06/02 02:43:48;;;;;;;8.05;4.03;;;;;;;18.29;81.48;99653.90;1712911;82;21286;-71
2022/06/02 02:46:38;;;;;;;5.05;3.65;;;;;;;18.27;81.54;99650.66;1735582;82;21029;-67
2022/06/02 02:49:28;;;;;;;4.40;3.55;;;;;;;18.25;82.11;99647.64;1732793;82;21521;-68
2022/06/02 02:52:24;;;;;;;4.75;3.83;;;;;;;18.26;82.28;99647.06;1733477;82;20985;-68
2022/06/02 02:54:59;;;;;;;4.42;3.50;;;;;;;18.29;82.42;99644.14;1704810;82;21094;-72
2022/06/02 02:57:47;;;;;;;5.78;3.72;;;;;;;18.26;82.39;99642.87;1723596;82;21113;-70
2022/06/02 03:00:25;;;;;;;7.85;3.83;;;;;;;18.26;82.63;99642.87;1732789;82;21020;-65
2022/06/02 03:03:22;;;;;;;4.30;3.35;;;;;;;18.28;82.72;99648.09;1729896;82;21084;-70
2022/06/02 03:06:20;;;;;;;11.08;3.50;;;;;;;18.32;82.82;99654.55;1708983;82;21548;-71
2022/06/02 03:09:20;;;;;;;8.80;3.85;;;;;;;18.39;83.11;99665.81;1730341;82;20985;-69
2022/06/02 03:12:04;;;;;;;5.85;3.55;;;;;;;18.44;83.13;99663.33;1733138;82;21424;-66
2022/06/02 03:14:34;;;;;;;;;;;;;;;18.48;83.07;99656.63;1734513;82;21052;-68
2022/06/02 03:17:12;;;;;;;12.33;4.03;;;;;;;18.54;82.90;99660.51;1740378;81;20144;-67
2022/06/02 03:20:00;;;;;;;14.23;4.17;;;;;;;18.56;82.67;99671.50;1744058;81;20993;-66
2022/06/02 03:23:06;;;;;;;8.93;3.92;;;;;;;18.55;82.54;99673.27;1743263;81;21035;-66
2022/06/02 03:25:49;;;;;;;10.53;4.12;;;;;;;18.49;82.64;99677.76;1745813;81;21271;-68
2022/06/02 03:28:41;;;;;;;6.72;4.28;;;;;;;18.45;82.77;99676.09;1743457;81;21075;-67
2022/06/02 03:31:35;;;;;;;11.73;5.10;;;;;;;18.44;83.07;99672.48;1743915;81;21019;-68
2022/06/02 03:34:22;;;;;;;10.98;4.37;;;;;;;18.49;83.28;99681.94;1742794;81;21015;-68
2022/06/02 03:37:18;;;;;;;18.75;4.95;;;;;;;18.55;83.29;99685.24;1746563;81;22427;-69
2022/06/02 03:40:33;;;;;;;21.40;5.08;;;;;;;18.61;83.18;99693.52;1746542;81;21121;-70
2022/06/02 03:43:30;;;;;;;9.43;4.72;;;;;;;18.70;83.22;99693.28;1749010;81;21043;-67
2022/06/02 03:46:12;;;;;;;7.03;3.77;;;;;;;18.83;83.08;99694.50;1730789;81;21086;-70
2022/06/02 03:49:16;;;;;;;6.35;3.80;;;;;;;18.95;82.96;99696.29;1740465;81;21031;-67
2022/06/02 03:52:07;;;;;;;4.15;3.27;;;;;;;19.04;82.87;99694.64;1746577;81;21047;-69
2022/06/02 03:54:47;;;;;;;7.60;4.00;;;;;;;19.14;82.86;99691.22;1744082;81;21110;-65
2022/06/02 03:57:32;;;;;;;8.60;4.10;;;;;;;19.24;82.69;99695.97;1745689;81;21035;-69
2022/06/02 04:00:28;;;;;;;4.37;3.30;;;;;;;19.34;82.56;99691.14;1745462;81;21571;-70
2022/06/02 04:03:04;;;;;;;6.37;3.50;;;;;;;19.42;82.11;99695.64;1745458;81;21020;-70
2022/06/02 04:05:43;;;;;;;6.15;3.58;;;;;;;19.52;81.64;99692.78;1742540;81;21004;-69
2022/06/02 04:08:36;;;;;;;7.03;2.98;;;;;;;19.58;81.21;99689.87;1743609;81;21516;-66
2022/06/02 04:13:37;;;;;;;4.58;2.83;;;;;;;19.68;80.97;99694.02;1746733;81;21054;-70
2022/06/02 04:14:11;;;;;;;6.08;2.95;;;;;;;19.78;80.39;99704.31;1741325;81;21036;-67
2022/06/02 04:17:04;;;;;;;3.62;2.95;;;;;;;19.86;79.56;99709.42;1742561;81;21702;-65
2022/06/02 04:23:11;;;;;;;4.03;3.08;;;;;;;20.03;78.47;99710.80;1732044;82;21259;-71
2022/06/02 04:26:11;;;;;;;3.85;2.75;;;;;;;20.13;77.40;99713.58;1732806;82;20984;-70
2022/06/02 04:29:15;;;;;;;4.35;2.70;;;;;;;20.14;76.16;99715.98;1729343;82;21055;-68
2022/06/02 04:32:01;;;;;;;4.90;3.27;;;;;;;20.22;76.96;99723.86;1732798;82;21079;-71
2022/06/02 04:35:10;;;;;;;11.48;3.83;;;;;;;20.27;75.27;99722.70;1733493;82;21071;-67
2022/06/02 04:38:12;;;;;;;5.12;3.12;;;;;;;20.33;75.76;99717.00;1733062;82;21172;-70
2022/06/02 04:41:24;;;;;;;5.58;3.58;;;;;;;20.41;75.72;99704.70;1729953;82;21028;-67
2022/06/02 04:44:22;;;;;;;3.70;2.52;;;;;;;20.48;75.17;99696.97;1730489;82;21028;-67
2022/06/02 04:47:19;;;;;;;3.47;2.70;;;;;;;20.57;73.60;99705.06;1730406;82;21031;-66
2022/06/02 04:49:59;;;;;;;6.90;3.17;;;;;;;20.66;72.87;99705.53;1728352;82;21067;-69
2022/06/02 04:53:06;;;;;;;6.17;2.98;;;;;;;20.77;72.90;99697.25;1700678;82;22058;-70
2022/06/02 04:56:07;;;;;;;5.22;3.20;;;;;;;20.86;72.75;99691.34;1730905;82;21016;-67
2022/06/02 04:58:56;;;;;;;3.55;2.77;;;;;;;20.88;71.85;99684.73;1725572;82;21532;-68
2022/06/02 05:01:47;;;;;;;5.15;2.95;;;;;;;20.90;71.55;99688.55;1727800;82;21111;-67
2022/06/02 05:04:55;;;;;;;3.58;2.50;;;;;;;20.94;71.37;99684.41;1731576;82;21089;-67
2022/06/02 05:08:00;;;;;;;10.15;2.77;;;;;;;21.01;71.68;99679.69;1730575;82;21792;-70
2022/06/02 05:10:45;;;;;;;5.30;2.80;;;;;;;21.13;70.99;99684.17;1727616;82;20989;-72
2022/06/02 05:13:36;;;;;;;5.45;3.70;;;;;;;21.22;70.47;99680.23;1727398;82;21088;-70
2022/06/02 05:16:33;;;;;;;4.40;2.85;;;;;;;21.29;70.94;99676.05;1735293;82;21119;-67
2022/06/02 05:19:30;;;;;;;10.72;2.95;;;;;;;21.33;69.51;99678.30;1738539;81;20988;-65
2022/06/02 05:22:28;;;;;;;5.30;3.22;;;;;;;21.36;70.08;99676.11;1740199;81;21163;-70
2022/06/02 05:25:29;;;;;;;5.55;3.37;;;;;;;21.49;70.27;99680.00;1741765;81;21060;-66
2022/06/02 05:28:27;;;;;;;7.75;3.00;;;;;;;21.63;69.81;99678.66;1744129;81;21064;-66
2022/06/02 05:31:11;;;;;;;5.55;3.40;;;;;;;21.75;69.13;99685.14;1738380;81;21551;-70
2022/06/02 05:33:47;;;;;;;;;;;;;;;21.83;68.52;99690.20;1741459;81;21066;-66
2022/06/02 05:36:28;;;;;;;5.17;2.95;;;;;;;21.88;68.28;99686.44;1727471;81;21319;-68
2022/06/02 05:39:49;;;;;;;8.95;3.22;;;;;;;21.88;67.53;99686.44;1737518;81;21086;-65
2022/06/02 05:42:44;;;;;;;4.47;3.45;;;;;;;21.74;67.57;99689.13;1741516;81;21087;-67
2022/06/02 05:45:26;;;;;;;4.58;3.27;;;;;;;21.61;67.24;99687.27;1745515;81;20988;-66
2022/06/02 05:48:04;;;;;;;5.40;3.20;;;;;;;21.56;67.59;99686.23;1739647;81;21083;-65
2022/06/02 05:50:52;;;;;;;5.53;2.87;;;;;;;21.62;68.08;99679.86;1740833;81;21558;-64
2022/06/02 05:53:51;;;;;;;4.67;3.60;;;;;;;21.73;67.99;99681.92;1739034;81;20920;-67
2022/06/02 05:56:46;;;;;;;9.35;2.83;;;;;;;21.82;68.11;99675.99;1739734;81;21035;-66
2022/06/02 05:59:36;;;;;;;6.37;3.50;;;;;;;21.97;67.86;99679.03;1745029;81;21039;-68
2022/06/02 06:02:34;;;;;;;12.75;5.62;;;;;;;22.10;67.87;99680.91;1743346;81;21090;-66
2022/06/02 06:05:24;;;;;;;19.85;10.28;;;;;;;22.21;67.28;99682.32;1746369;81;21762;-67
2022/06/02 06:08:16;;;;;;;19.70;9.25;;;;;;;22.31;66.73;99682.17;1741731;82;21003;-67
2022/06/02 06:11:03;;;;;;;20.32;9.95;;;;;;;22.38;66.20;99691.98;1752513;81;21015;-70
2022/06/02 06:14:11;;;;;;;14.13;8.18;;;;;;;22.40;65.26;99695.02;1752998;81;21114;-67
2022/06/02 06:16:55;;;;;;;11.48;6.00;;;;;;;22.42;65.49;99699.61;1746855;81;21157;-70
2022/06/02 06:19:29;;;;;;;13.62;6.25;;;;;;;22.49;64.54;99700.44;1747322;81;21094;-70
2022/06/02 06:22:33;;;;;;;;;;;;;;;22.55;63.74;99698.65;1754392;81;21059;-65
2022/06/02 06:25:26;;;;;;;8.05;4.37;;;;;;;22.58;63.17;99704.27;1759438;79;20172;-68
2022/06/02 06:28:15;;;;;;;7.70;3.90;;;;;;;22.56;63.11;99701.64;1753972;80;21040;-70
2022/06/02 06:31:08;;;;;;;5.90;3.45;;;;;;;22.55;61.60;99703.67;1760976;79;21039;-67
2022/06/02 06:34:02;;;;;;;9.65;3.22;;;;;;;22.56;62.60;99706.67;1753493;79;21785;-69
2022/06/02 06:36:46;;;;;;;4.33;3.20;;;;;;;22.62;62.19;99708.52;1797129;79;21105;-66
2022/06/02 06:39:24;;;;;;;4.08;2.50;;;;;;;22.67;62.48;99708.72;1793048;79;21448;-67
2022/06/02 06:42:00;;;;;;;3.65;2.58;;;;;;;22.74;61.58;99712.92;1787459;79;21070;-67
2022/06/02 06:44:39;;;;;;;8.78;2.72;;;;;;;22.74;60.50;99712.33;1795920;77;21026;-65
2022/06/02 06:47:30;;;;;;;7.15;3.12;;;;;;;22.75;60.43;99707.53;1790830;77;21753;-75
2022/06/02 06:50:08;;;;;;;5.80;2.83;;;;;;;22.79;61.75;99708.31;1796826;79;21010;-72
2022/06/02 06:53:00;;;;;;;6.45;4.28;;;;;;;22.89;62.24;99709.55;1765055;79;21011;-68
2022/06/02 06:56:16;;;;;;;4.47;3.08;;;;;;;22.94;63.26;99716.17;1797621;77;22270;-67
2022/06/02 06:59:18;;;;;;;4.58;2.52;;;;;;;22.97;63.93;99714.55;1796600;79;21077;-67
2022/06/02 07:02:01;;;;;;;4.72;3.20;;;;;;;23.08;64.38;99720.19;1774067;79;21101;-67
2022/06/02 07:05:07;;;;;;;5.20;3.50;;;;;;;23.26;64.54;99717.95;1797654;79;21034;-74
2022/06/02 07:08:09;;;;;;;3.80;3.20;;;;;;;23.34;62.95;99723.77;1798922;77;21038;-71
2022/06/02 07:11:09;;;;;;;7.20;3.75;;;;;;;23.33;61.71;99722.98;1794071;79;21487;-69
2022/06/02 07:13:49;;;;;;;12.37;3.33;;;;;;;23.27;62.26;99723.16;1791924;79;21649;-71
2022/06/02 07:16:31;;;;;;;10.23;3.67;;;;;;;23.34;63.49;99727.38;1771669;79;21219;-69
2022/06/02 07:19:09;;;;;;;6.85;3.00;;;;;;;23.47;63.04;99725.59;1786149;79;21047;-70
2022/06/02 07:21:47;;;;;;;8.65;3.70;;;;;;;23.60;61.29;99731.59;1769790;80;21080;-73
2022/06/02 07:25:03;;;;;;;14.25;4.30;;;;;;;23.63;62.04;99726.55;1781038;79;21038;-65
2022/06/02 07:27:51;;;;;;;6.17;4.03;;;;;;;23.69;62.20;99733.39;1766717;79;22209;-69
2022/06/02 07:31:06;;;;;;;9.85;4.00;;;;;;;23.75;62.61;99737.97;1784703;79;22202;-67
2022/06/02 07:33:45;;;;;;;5.10;3.27;;;;;;;23.78;61.96;99747.63;1788469;79;21019;-69
2022/06/02 07:36:45;;;;;;;6.60;3.77;;;;;;;23.80;61.63;99739.56;1788091;79;21010;-67
2022/06/02 07:39:35;;;;;;;6.72;3.92;;;;;;;23.95;61.24;99748.78;1790080;79;21230;-68
2022/06/02 07:42:13;;;;;;;7.17;3.80;;;;;;;24.07;60.74;99748.31;1790890;79;20991;-68
2022/06/02 07:45:01;;;;;;;5.00;3.72;;;;;;;24.11;61.65;99746.09;1785563;79;21421;-68
2022/06/02 07:48:03;;;;;;;8.50;4.25;;;;;;;24.19;61.86;99742.09;1790974;79;21038;-67
2022/06/02 07:50:32;;;;;;;6.03;4.30;;;;;;;24.27;62.71;99745.66;1787482;79;20980;-71
2022/06/02 07:53:21;;;;;;;5.12;3.67;;;;;;;24.34;61.12;99748.45;1788169;79;21050;-70
2022/06/02 07:56:03;;;;;;;5.42;3.85;;;;;;;24.36;61.95;99748.03;1763141;79;21062;-68
2022/06/02 07:59:04;;;;;;;9.38;4.03;;;;;;;24.44;61.94;99746.78;1785292;79;21993;-72
2022/06/02 08:02:01;;;;;;;5.75;3.62;;;;;;;24.54;61.15;99750.15;1780200;79;37784;-74
2022/06/02 08:04:45;;;;;;;11.50;4.65;;;;;;;24.66;60.87;99748.87;1768969;79;21046;-71
2022/06/02 08:07:33;;;;;;;4.47;3.95;;;;;;;24.75;60.39;99745.59;1789718;79;21035;-68
2022/06/02 08:10:24;;;;;;;34.15;6.72;;;;;;;24.79;58.23;99750.58;1766897;79;21051;-69
2022/06/02 08:12:56;;;;;;;17.85;6.17;;;;;;;24.80;59.75;99754.21;1791841;79;21045;-69
2022/06/02 08:15:38;;;;;;;13.58;4.30;;;;;;;24.93;61.45;99757.36;1777960;79;21538;-66
2022/06/02 08:18:38;;;;;;;19.03;5.53;;;;;;;25.05;61.05;99761.70;1784601;79;21078;-67
2022/06/02 08:21:30;;;;;;;9.13;3.77;;;;;;;25.19;60.87;99768.44;1801289;79;21044;-68
2022/06/02 08:24:07;;;;;;;4.55;3.27;;;;;;;25.29;59.28;99766.14;1798190;79;21042;-65
2022/06/02 08:26:58;;;;;;;4.75;3.62;;;;;;;25.31;57.62;99758.07;1794218;79;22074;-69
2022/06/02 08:30:01;;;;;;;7.72;3.92;;;;;;;25.26;58.03;99750.87;1790888;79;21048;-65
2022/06/02 08:32:41;;;;;;;5.20;4.03;;;;;;;25.31;59.52;99760.89;1785977;77;21687;-69
2022/06/02 08:35:28;;;;;;;8.48;3.65;;;;;;;25.36;58.96;99763.27;1787463;79;21538;-68
2022/06/02 08:38:29;;;;;;;7.85;4.25;;;;;;;25.33;58.36;99756.24;1791924;79;20963;-63
2022/06/02 08:41:40;;;;;;;8.35;3.27;;;;;;;25.21;58.05;99763.19;1784060;79;21211;-72
2022/06/02 08:44:35;;;;;;;4.50;3.02;;;;;;;25.06;57.88;99754.05;1797001;77;21634;-69
2022/06/02 08:47:46;;;;;;;7.15;2.95;;;;;;;25.09;58.40;99763.08;1780435;77;20985;-67
2022/06/02 08:50:36;;;;;;;5.40;3.85;;;;;;;25.22;57.57;99761.36;1796219;79;20987;-72
2022/06/02 08:53:20;;;;;;;7.20;3.92;;;;;;;25.35;57.45;99752.41;1792441;79;22280;-67
2022/06/02 08:56:43;;;;;;;4.55;3.52;;;;;;;25.37;58.15;99760.62;1790831;79;22914;-68
2022/06/02 08:59:39;;;;;;;8.83;3.83;;;;;;;25.38;57.92;99763.66;1794934;79;21038;-68
2022/06/02 09:02:33;;;;;;;9.50;4.42;;;;;;;25.47;58.39;99757.50;1802491;77;21624;-68
2022/06/02 09:05:25;;;;;;;;;;;;;;;25.62;58.06;99757.37;1796891;77;21069;-65
2022/06/02 09:08:10;;;;;;;5.65;3.87;;;;;;;25.74;58.15;99759.68;1800730;79;20251;-65
2022/06/02 09:11:12;;;;;;;8.40;4.75;;;;;;;25.85;56.30;99757.35;1807368;77;21160;-63
2022/06/02 09:14:32;;;;;;;4.42;3.72;;;;;;;25.87;55.64;99750.08;1792573;79;21001;-65
2022/06/02 09:17:28;;;;;;;9.55;4.47;;;;;;;25.96;56.52;99750.19;1768815;79;21495;-65
2022/06/02 09:20:13;;;;;;;4.85;3.65;;;;;;;26.18;58.32;99745.69;1793702;79;21109;-66
2022/06/02 09:22:54;;;;;;;6.92;4.95;;;;;;;26.38;57.30;99752.91;1794277;79;21047;-67
2022/06/02 09:25:34;;;;;;;6.65;4.47;;;;;;;26.59;57.92;99752.43;1794816;79;21502;-69
2022/06/02 09:28:42;;;;;;;7.35;3.47;;;;;;;26.77;57.44;99757.03;1765186;77;21007;-65
2022/06/02 09:31:56;;;;;;;6.83;3.72;;;;;;;26.93;56.49;99760.00;1795123;79;21081;-64
2022/06/02 09:34:53;;;;;;;5.70;3.83;;;;;;;27.09;54.53;99759.98;1799518;77;21000;-64
2022/06/02 09:37:51;;;;;;;6.22;4.12;;;;;;;27.19;54.17;99754.74;1746859;81;21060;-65
2022/06/02 09:40:46;;;;;;;4.28;3.40;;;;;;;27.25;53.29;99751.42;1727254;82;21535;-63
2022/06/02 09:43:33;;;;;;;4.78;3.60;;;;;;;27.35;53.74;99754.69;1716590;83;21051;-65
2022/06/02 09:46:29;;;;;;;4.05;3.30;;;;;;;27.45;52.51;99753.70;1717884;81;21085;-68
2022/06/02 09:49:14;;;;;;;3.50;3.17;;;;;;;27.45;51.01;99749.45;1710367;82;21072;-69
2022/06/02 09:52:03;;;;;;;7.33;4.17;;;;;;;27.46;51.44;99748.24;1706084;82;21023;-68
2022/06/02 09:55:13;;;;;;;5.25;3.12;;;;;;;27.55;51.85;99743.41;1715730;82;21961;-67
2022/06/02 09:58:26;;;;;;;8.78;3.58;;;;;;;27.62;50.80;99744.53;1711815;83;21054;-69
2022/06/02 10:01:19;;;;;;;3.60;2.90;;;;;;;27.66;50.46;99731.91;1634875;86;21027;-64
2022/06/02 10:04:24;;;;;;;4.95;3.60;;;;;;;27.69;49.43;99735.91;1713911;83;21071;-67
2022/06/02 10:07:08;;;;;;;5.03;3.22;;;;;;;27.73;48.80;99731.60;1718170;81;21008;-69
2022/06/02 10:09:44;;;;;;;7.95;3.58;;;;;;;27.75;49.42;99727.73;1708033;83;21638;-64
2022/06/02 10:15:43;;;;;;;5.08;2.77;;;;;;;27.93;48.91;99718.87;1710677;83;21031;-69
2022/06/02 10:18:46;;;;;;;6.72;2.95;;;;;;;28.02;48.45;99714.04;1698295;84;21106;-70
2022/06/02 10:21:33;;;;;;;8.35;3.47;;;;;;;28.07;47.75;99705.84;1674703;83;21130;-68
2022/06/02 10:24:35;;;;;;;6.30;3.10;;;;;;;28.15;48.49;99700.03;1721474;83;21129;-66
2022/06/02 10:27:30;;;;;;;8.83;3.15;;;;;;;28.25;47.67;99701.03;1724486;82;21018;-66
2022/06/02 10:30:18;;;;;;;4.40;2.98;;;;;;;28.25;46.47;99687.64;1700399;84;21517;-68
2022/06/02 10:33:28;;;;;;;3.87;2.98;;;;;;;28.28;47.33;99695.90;1680181;84;21030;-67
2022/06/02 10:36:38;;;;;;;8.48;3.87;;;;;;;28.33;47.81;99691.13;1687461;84;21069;-64
2022/06/02 10:39:31;;;;;;;5.35;3.27;;;;;;;28.39;47.63;99682.31;1716853;81;21214;-67
2022/06/02 10:42:29;;;;;;;9.00;3.43;;;;;;;28.47;47.06;99676.48;1693590;84;21011;-69
2022/06/02 10:45:26;;;;;;;6.37;2.77;;;;;;;28.49;46.78;99675.44;1698899;84;21070;-65
2022/06/02 10:48:22;;;;;;;4.95;3.33;;;;;;;28.53;46.24;99670.47;1609074;87;21062;-71
2022/06/02 10:51:24;;;;;;;6.42;2.80;;;;;;;28.50;45.86;99665.69;1687676;84;21067;-65
2022/06/02 10:54:29;;;;;;;5.40;3.20;;;;;;;28.47;46.23;99663.73;1692871;84;21510;-66
2022/06/02 10:57:30;;;;;;;3.65;2.87;;;;;;;28.41;45.87;99654.34;1692476;84;21092;-67
2022/06/02 11:00:18;;;;;;;5.65;2.80;;;;;;;28.35;46.71;99646.83;1735255;81;21006;-65
2022/06/02 11:03:15;;;;;;;5.22;2.83;;;;;;;28.36;46.28;99637.08;1737124;81;20996;-68
2022/06/02 11:05:55;;;;;;;8.10;2.85;;;;;;;28.40;46.75;99639.22;1735259;81;21535;-65
2022/06/02 11:09:09;;;;;;;2.75;2.47;;;;;;;28.39;45.84;99637.60;1685386;84;21120;-68
2022/06/02 11:12:01;;;;;;;4.70;3.02;;;;;;;28.38;46.00;99633.99;1668157;85;21065;-65
2022/06/02 11:15:01;;;;;;;6.25;3.20;;;;;;;28.36;46.05;99632.83;1697604;83;21598;-64
2022/06/02 11:18:06;;;;;;;4.37;2.65;;;;;;;28.35;47.29;99633.47;1657249;84;21023;-64
2022/06/02 11:21:12;;;;;;;5.67;3.00;;;;;;;28.34;47.28;99631.85;1696312;84;21084;-65
2022/06/02 11:24:18;;;;;;;5.00;3.10;;;;;;;28.35;48.22;99626.39;1623384;87;21132;-66
2022/06/02 11:27:14;;;;;;;3.70;3.00;;;;;;;28.47;47.89;99617.81;1696069;83;21046;-63
2022/06/02 11:30:14;;;;;;;4.85;2.67;;;;;;;28.63;47.49;99611.33;1696103;84;21007;-68
2022/06/02 11:32:50;;;;;;;6.97;2.77;;;;;;;28.79;46.35;99617.61;1712129;83;21018;-64
2022/06/02 11:35:51;;;;;;;6.72;3.20;;;;;;;28.84;44.97;99615.47;1711961;83;21007;-63
2022/06/02 11:38:29;;;;;;;3.58;2.42;;;;;;;28.82;44.86;99610.25;1710970;82;21202;-65
2022/06/02 11:41:28;;;;;;;4.45;2.80;;;;;;;28.89;46.26;99607.23;1712273;83;21027;-62
2022/06/02 11:44:09;;;;;;;5.50;2.72;;;;;;;28.92;46.73;99604.11;1710858;83;21590;-64
2022/06/02 11:46:44;;;;;;;6.58;2.77;;;;;;;28.96;46.19;99601.19;1710584;83;21018;-64
2022/06/02 11:49:39;;;;;;;6.50;3.27;;;;;;;29.00;45.86;99592.00;1709960;83;21312;-69
2022/06/02 11:52:31;;;;;;;11.22;3.10;;;;;;;29.09;45.32;99592.79;1696090;84;21509;-67
2022/06/02 11:55:24;;;;;;;8.35;3.75;;;;;;;29.19;43.82;99588.05;1679779;85;21063;-68
2022/06/02 11:58:18;;;;;;;3.40;2.80;;;;;;;29.23;43.51;99588.73;1693546;84;21050;-70
2022/06/02 12:01:33;;;;;;;5.30;3.20;;;;;;;29.22;44.57;99586.55;1696078;83;21460;-68
2022/06/02 12:04:49;;;;;;;7.72;3.02;;;;;;;29.34;43.95;99583.58;1703631;84;21554;-66
2022/06/02 12:07:25;;;;;;;8.80;2.80;;;;;;;29.35;42.84;99577.26;1706326;83;21523;-65
2022/06/02 12:10:12;;;;;;;8.50;2.83;;;;;;;29.33;44.18;99574.87;1697508;84;21121;-67
2022/06/02 12:13:02;;;;;;;8.18;2.90;;;;;;;29.38;43.96;99574.94;1708200;83;21090;-65
2022/06/02 12:15:57;;;;;;;4.67;2.90;;;;;;;29.44;43.27;99578.02;1696198;83;21046;-69
2022/06/02 12:19:02;;;;;;;7.53;2.60;;;;;;;29.57;44.61;99573.78;1696649;83;21027;-68
2022/06/02 12:22:13;;;;;;;6.35;2.35;;;;;;;29.66;43.93;99572.54;1694807;83;21527;-66
2022/06/02 12:25:07;;;;;;;6.62;3.45;;;;;;;29.67;44.90;99574.12;1700002;84;21034;-67
2022/06/02 12:27:55;;;;;;;6.10;3.08;;;;;;;29.75;43.44;99577.55;1663014;84;21528;-63
2022/06/02 12:30:33;;;;;;;4.72;2.62;;;;;;;29.64;41.52;99573.61;1641915;87;21073;-68
2022/06/02 12:33:14;;;;;;;5.05;2.55;;;;;;;29.47;42.39;99581.37;1707357;83;21570;-68
2022/06/02 12:36:09;;;;;;;7.50;3.10;;;;;;;29.45;41.67;99581.83;1683456;84;21103;-65
2022/06/02 12:38:49;;;;;;;7.37;2.47;;;;;;;29.37;42.40;99585.51;1681310;84;21264;-69
2022/06/02 12:41:24;;;;;;;4.60;3.00;;;;;;;29.34;41.89;99587.02;1685256;84;21527;-70
2022/06/02 12:43:57;;;;;;;4.60;2.72;;;;;;;29.33;42.25;99585.41;1730662;82;21518;-69
2022/06/02 12:46:59;;;;;;;6.93;2.53;;;;;;;29.37;43.67;99579.83;1726378;82;21092;-64
2022/06/02 12:49:54;;;;;;;9.55;3.17;;;;;;;29.48;43.92;99580.14;1730580;82;21340;-64
2022/06/02 12:53:01;;;;;;;5.55;2.75;;;;;;;29.56;43.19;99567.34;1706570;84;21074;-67
2022/06/02 12:55:59;;;;;;;6.20;2.60;;;;;;;29.64;44.27;99567.32;1703650;84;21004;-65
2022/06/02 12:59:10;;;;;;;4.92;2.60;;;;;;;29.70;43.83;99555.41;1696152;84;21519;-64
2022/06/02 13:01:57;;;;;;;6.58;2.37;;;;;;;29.68;43.62;99545.93;1680470;85;21089;-66
2022/06/02 13:05:01;;;;;;;5.80;2.45;;;;;;;29.57;42.29;99541.16;1671811;85;21129;-67
2022/06/02 13:07:50;;;;;;;5.08;2.15;;;;;;;29.41;41.96;99532.92;1678213;85;21104;-67
2022/06/02 13:10:35;;;;;;;6.67;2.20;;;;;;;29.23;41.95;99529.18;1639387;84;21133;-68
2022/06/02 13:13:28;;;;;;;6.42;2.65;;;;;;;29.10;42.46;99528.54;1668983;85;21061;-68
2022/06/02 13:16:36;;;;;;;7.47;2.65;;;;;;;29.06;42.49;99527.03;1696364;84;21638;-67
2022/06/02 13:19:46;;;;;;;4.47;2.60;;;;;;;29.02;42.53;99534.22;1643039;85;21828;-69
2022/06/02 13:22:33;;;;;;;4.45;2.22;;;;;;;29.05;42.68;99514.91;1678194;85;21518;-67
2022/06/02 13:25:17;;;;;;;4.60;2.65;;;;;;;29.13;43.17;99519.13;1691470;84;21012;-69
2022/06/02 13:28:10;;;;;;;4.33;2.80;;;;;;;29.25;44.25;99513.32;1708478;84;21057;-66
2022/06/02 13:31:10;;;;;;;6.47;3.05;;;;;;;29.36;43.14;99516.47;1695274;84;21038;-69
2022/06/02 13:34:01;;;;;;;3.58;2.62;;;;;;;29.44;42.49;99511.36;1635487;87;21171;-64
2022/06/02 13:37:08;;;;;;;10.05;3.00;;;;;;;29.46;41.72;99513.13;1688857;83;20989;-65
2022/06/02 13:40:09;;;;;;;3.80;2.72;;;;;;;29.43;43.74;99511.20;1672064;85;21296;-65
2022/06/02 13:43:01;;;;;;;5.25;3.10;;;;;;;29.43;43.30;99505.52;1697852;83;21000;-70